Malaysia Virtual Airlines Airport Information Service

Heathrow

ICAO: EGLL Country: United Kingdom
Latitude: 51.4711 Longitude: -0.456491
Latest Arrival : MH4 (WMKK-EGLL) Latest Departure : AY834 (EGLL-EFHK)


WX CaptureLIVE
Data provided by noaa.gov | Fetched at 21:02:09

METAR : EGLL 122050Z AUTO 11006KT 9999 NCD 13/05 Q1008 NOSIG

TAF : EGLL 121653Z 1218/1324 18010KT 9999 SCT040 BECMG 1218/1221 10006KT PROB30 TEMPO 1222/1304 8000 -RA TEMPO 1304/1311 8000 -RA BKN012 TEMPO 1311/1318 5000 SHRA PROB30 TEMPO 1311/1318 BKN014


Runway Data for EGLL
Data provided by openaviationdata.com

Runway ID Mag Var Hdg Length Elevation Surface ILS Freq ILS Id ILS Slope
09L -1 90° 13160 ft 83 ft Asphalt 110.3 IAA 3
09R -1 91° 12396 ft 83 ft Asphalt 109.5 IBB 3
27L -1 271° 12396 ft 83 ft Asphalt 109.5 ILL 3
27R -1 270° 13160 ft 83 ft Asphalt 110.3 IRR 3

Heathrow, United Kingdom
Use only for reference purposes



Not for navigational purposes.